KMMT

Mc Entire Jngb Airport

Eastover, South Carolina, USA
METAR KMMT 231056Z 00000KT 10SM BKN060 BKN150 BKN250 08/07 A3021 RMK AO2A SLP233 T00770074 $
Observed Flight Rules
Oct-23 @ 10:56 UTC (an hour ago) Visual Flight Rules
Visibility Clouds
10 miles
  • Broken at 6,000' AGL
  • Broken at 15,000' AGL
  • Broken at 25,000' AGL
Temperatures Readings
Current 8°C / 46°F
Dewpoint 7°C / 45°F
Humidity 93%
Altimeter 30.21" Hg
Pressure 1023.3 hPa
Elevation 77
METAR KMMT 231056Z 00000KT 10SM BKN060 BKN150 BKN250 08/07 A3021 RMK AO2A SLP233 T00770074 $
Observed Flight Rules
Oct-23 @ 10:56 UTC
(an hour ago)
VFR
Clouds
  • Broken at 6,000' AGL
  • Broken at 15,000' AGL
  • Broken at 25,000' AGL
Temperature Dewpoint
8°C / 46°F 7°C / 45°F
Humidity Altimeter Pressure
93% 30.21" Hg 1023.3 hPa